Time;durP1;ratioP1;P1;durP2;ratioP2;P2;SDS_P1;SDS_P2;PMS_P1;PMS_P2;Temp;Humidity;BMP_temperature;BMP_pressure;BME280_temperature;BME280_humidity;BME280_pressure;Samples;Min_cycle;Max_cycle;Signal;HPM_P1;HPM_P2
2024/03/06 00:00:40;;;;;;;64.70;39.50;;;;;;;5.83;81.13;97237.23;108792;1254;103237;-80
2024/03/06 00:03:28;;;;;;;61.10;38.00;;;;;;;5.81;81.13;97233.86;108805;1254;102694;-80
2024/03/06 00:05:56;;;;;;;70.50;39.30;;;;;;;5.74;81.08;97235.79;108797;1254;98643;-80
2024/03/06 00:08:23;;;;;;;67.60;40.80;;;;;;;5.69;80.99;97236.41;108816;1254;95655;-80
2024/03/06 00:10:52;;;;;;;74.90;42.10;;;;;;;5.68;81.22;97237.46;108905;1253;95707;-80
2024/03/06 00:13:20;;;;;;;67.00;39.10;;;;;;;5.66;81.23;97237.53;108813;1253;102127;-79
2024/03/06 00:15:48;;;;;;;66.50;38.90;;;;;;;5.64;81.23;97234.98;108821;1253;101465;-80
2024/03/06 00:18:15;;;;;;;64.90;38.00;;;;;;;5.61;81.23;97238.48;108767;1253;99360;-80
2024/03/06 00:20:44;;;;;;;69.00;39.80;;;;;;;5.61;81.38;97239.92;108755;1254;95907;-80
2024/03/06 00:23:12;;;;;;;67.00;39.70;;;;;;;5.61;81.40;97242.06;108837;1252;96016;-80
2024/03/06 00:25:40;;;;;;;61.30;38.30;;;;;;;5.60;81.40;97241.30;108775;1253;103816;-79
2024/03/06 00:28:07;;;;;;;62.60;38.80;;;;;;;5.61;81.38;97245.45;108807;1253;101680;-80
2024/03/06 00:30:35;;;;;;;61.90;36.90;;;;;;;5.63;81.32;97243.59;108765;1253;100188;-80
2024/03/06 00:33:03;;;;;;;62.30;37.30;;;;;;;5.65;81.20;97244.85;108818;1254;95583;-80
2024/03/06 00:35:31;;;;;;;60.40;37.30;;;;;;;5.62;81.19;97246.00;108791;1252;96030;-80
2024/03/06 00:38:02;;;;;;;67.00;39.60;;;;;;;5.61;81.13;97241.77;108833;1254;102644;-80
2024/03/06 00:40:31;;;;;;;62.20;36.90;;;;;;;5.61;81.16;97243.30;108859;1252;101329;-80
2024/03/06 00:42:59;;;;;;;62.40;37.30;;;;;;;5.60;81.09;97243.12;108852;1252;100132;-80
2024/03/06 00:45:27;;;;;;;59.60;37.30;;;;;;;5.59;81.16;97242.69;108751;1251;95610;-80
2024/03/06 00:47:55;;;;;;;64.20;37.40;;;;;;;5.61;81.22;97244.00;108842;1252;95861;-80
2024/03/06 00:50:23;;;;;;;57.70;36.50;;;;;;;5.63;81.09;97245.47;108839;1253;111011;-80
2024/03/06 00:52:51;;;;;;;62.90;37.20;;;;;;;5.62;81.05;97246.54;108856;1252;101451;-80
2024/03/06 00:55:18;;;;;;;63.80;37.00;;;;;;;5.62;81.09;97248.73;108755;1252;100169;-80
2024/03/06 00:57:46;;;;;;;62.50;38.10;;;;;;;5.62;81.10;97247.52;108820;1252;95931;-80
2024/03/06 01:00:15;;;;;;;65.20;38.50;;;;;;;5.63;81.04;97245.97;108808;1252;96738;-80
2024/03/06 01:02:43;;;;;;;65.50;38.60;;;;;;;5.64;81.06;97246.33;108779;1253;103554;-80
2024/03/06 01:05:11;;;;;;;66.20;40.30;;;;;;;5.63;80.92;97245.80;108899;1253;101550;-80
2024/03/06 01:07:39;;;;;;;64.80;39.20;;;;;;;5.55;80.96;97246.80;108818;1252;107688;-80
2024/03/06 01:10:08;;;;;;;67.10;40.10;;;;;;;5.49;80.97;97247.48;108805;1252;95818;-80
2024/03/06 01:12:36;;;;;;;66.00;39.80;;;;;;;5.46;81.05;97248.88;108778;1252;96054;-80
2024/03/06 01:15:04;;;;;;;62.70;39.30;;;;;;;5.42;81.10;97248.13;108868;1253;103694;-80
2024/03/06 01:17:32;;;;;;;64.90;39.30;;;;;;;5.38;81.21;97244.61;108847;1253;100432;-80
2024/03/06 01:20:01;;;;;;;69.00;40.00;;;;;;;5.36;81.26;97242.20;108767;1253;100149;-80
2024/03/06 01:22:28;;;;;;;65.80;40.20;;;;;;;5.35;81.28;97240.73;108838;1252;95607;-80
2024/03/06 01:24:56;;;;;;;72.80;42.50;;;;;;;5.36;81.40;97239.88;108859;1253;96054;-80
2024/03/06 01:27:24;;;;;;;69.10;41.10;;;;;;;5.39;81.45;97244.30;108831;1253;103789;-80
2024/03/06 01:29:51;;;;;;;73.40;43.20;;;;;;;5.42;81.48;97242.66;108870;1254;101621;-80
2024/03/06 01:32:19;;;;;;;68.50;39.80;;;;;;;5.47;81.43;97239.67;108781;1253;98882;-80
2024/03/06 01:34:47;;;;;;;63.60;39.40;;;;;;;5.51;81.27;97239.98;108791;1253;95924;-80
2024/03/06 01:37:14;;;;;;;67.80;40.70;;;;;;;5.51;81.30;97241.88;108814;1252;96015;-80
2024/03/06 01:39:42;;;;;;;68.90;40.30;;;;;;;5.48;81.33;97243.85;108814;1251;102644;-80
2024/03/06 01:42:10;;;;;;;69.40;40.40;;;;;;;5.40;81.33;97246.54;108854;1253;100347;-80
2024/03/06 01:44:38;;;;;;;69.90;41.10;;;;;;;5.34;81.37;97247.71;108797;1251;100149;-80
2024/03/06 01:47:06;;;;;;;68.60;40.00;;;;;;;5.31;81.55;97248.66;108824;1252;95632;-80
2024/03/06 01:49:34;;;;;;;67.50;41.30;;;;;;;5.31;81.66;97247.52;108872;1252;96944;-80
2024/03/06 01:52:03;;;;;;;71.60;41.20;;;;;;;5.30;81.58;97249.52;108762;1252;105716;-80
2024/03/06 01:54:32;;;;;;;67.50;41.60;;;;;;;5.29;81.59;97254.98;108812;1252;100908;-80
2024/03/06 01:57:02;;;;;;;70.60;40.70;;;;;;;5.28;81.62;97256.56;108812;1253;100022;-80
2024/03/06 01:59:30;;;;;;;67.00;40.30;;;;;;;5.27;81.74;97256.17;108778;1252;95586;-80
2024/03/06 02:01:58;;;;;;;69.80;40.80;;;;;;;5.26;81.70;97258.59;108898;1252;95593;-80
2024/03/06 02:04:27;;;;;;;71.20;40.40;;;;;;;5.28;81.70;97257.04;108842;1253;103724;-80
2024/03/06 02:06:55;;;;;;;70.90;41.90;;;;;;;5.31;81.67;97256.65;108814;1253;101451;-80
2024/03/06 02:09:24;;;;;;;76.10;41.20;;;;;;;5.34;81.53;97253.35;108810;1253;106266;-80
2024/03/06 02:11:51;;;;;;;69.70;41.20;;;;;;;5.34;81.52;97250.60;108736;1253;95598;-80
2024/03/06 02:14:19;;;;;;;66.90;41.40;;;;;;;5.35;81.43;97252.13;108768;1252;96018;-80
2024/03/06 02:16:47;;;;;;;71.10;42.60;;;;;;;5.36;81.41;97252.73;108840;1253;102652;-80
2024/03/06 02:19:15;;;;;;;73.00;41.90;;;;;;;5.32;81.28;97253.16;108814;1254;100046;-80
2024/03/06 02:21:43;;;;;;;73.40;40.50;;;;;;;5.26;81.09;97254.98;108796;1253;99996;-80
2024/03/06 02:24:13;;;;;;;67.30;39.70;;;;;;;5.21;81.00;97255.01;108854;1253;95633;-80
2024/03/06 02:26:40;;;;;;;65.10;38.90;;;;;;;5.13;80.95;97257.96;108863;1252;96030;-80
2024/03/06 02:29:10;;;;;;;66.40;39.10;;;;;;;5.06;81.00;97255.80;108830;1253;102703;-80
2024/03/06 02:31:39;;;;;;;72.30;40.90;;;;;;;4.99;80.95;97254.94;108775;1251;100629;-80
2024/03/06 02:34:06;;;;;;;70.00;40.80;;;;;;;4.92;80.95;97257.64;108818;1252;98961;-80
2024/03/06 02:36:34;;;;;;;72.40;39.90;;;;;;;4.85;80.99;97258.59;108751;1253;95936;-80
2024/03/06 02:39:08;;;;;;;68.30;39.80;;;;;;;4.82;81.13;97266.20;108804;1253;95954;-80
2024/03/06 02:41:37;;;;;;;67.10;40.10;;;;;;;4.79;81.17;97266.67;108848;1252;102548;-80
2024/03/06 02:44:05;;;;;;;70.20;39.20;;;;;;;4.78;81.18;97265.91;108823;1253;101477;-80
2024/03/06 02:46:32;;;;;;;69.90;40.50;;;;;;;4.77;81.19;97265.52;108760;1252;98671;-80
2024/03/06 02:49:00;;;;;;;67.20;38.40;;;;;;;4.71;81.10;97265.59;108774;1252;95670;-80
2024/03/06 02:51:28;;;;;;;62.60;38.60;;;;;;;4.69;81.18;97265.48;108845;1253;96054;-80
2024/03/06 02:53:55;;;;;;;66.30;40.00;;;;;;;4.69;81.18;97267.45;108820;1252;103736;-80
2024/03/06 02:56:23;;;;;;;62.90;36.40;;;;;;;4.65;81.28;97266.77;108885;1252;101558;-80
2024/03/06 02:58:51;;;;;;;63.70;38.50;;;;;;;4.62;81.31;97271.25;108780;1253;100140;-80
2024/03/06 03:01:18;;;;;;;68.60;38.30;;;;;;;4.59;81.29;97271.82;108783;1252;95587;-80
2024/03/06 03:03:47;;;;;;;67.50;39.80;;;;;;;4.53;81.22;97271.59;108806;1252;96051;-80
2024/03/06 03:06:15;;;;;;;66.60;39.60;;;;;;;4.48;81.28;97272.01;108814;1253;103504;-80
2024/03/06 03:08:42;;;;;;;68.20;40.00;;;;;;;4.48;81.45;97270.20;108872;1252;100306;-80
2024/03/06 03:11:11;;;;;;;61.00;38.40;;;;;;;4.47;81.41;97271.72;108829;1253;98462;-80
2024/03/06 03:13:39;;;;;;;65.70;39.10;;;;;;;4.45;81.34;97272.91;108777;1253;95753;-80
2024/03/06 03:16:07;;;;;;;62.90;38.60;;;;;;;4.43;81.36;97280.48;108792;1253;96098;-80
2024/03/06 03:18:34;;;;;;;61.50;37.50;;;;;;;4.36;81.24;97282.15;108850;1252;103079;-80
2024/03/06 03:21:02;;;;;;;61.30;37.00;;;;;;;4.28;81.24;97280.71;108795;1253;101729;-80
2024/03/06 03:23:30;;;;;;;65.60;37.50;;;;;;;4.27;81.39;97283.52;108724;1252;100444;-80
2024/03/06 03:25:57;;;;;;;56.90;36.10;;;;;;;4.25;81.37;97286.20;108771;1252;95684;-80
2024/03/06 03:28:25;;;;;;;54.30;34.20;;;;;;;4.22;81.36;97285.08;108859;1252;96094;-80
2024/03/06 03:30:53;;;;;;;58.20;35.10;;;;;;;4.19;81.24;97288.42;108869;1253;110793;-80
2024/03/06 03:33:20;;;;;;;56.70;34.40;;;;;;;4.14;81.19;97290.17;108834;1253;101539;-80
2024/03/06 03:35:48;;;;;;;57.60;32.80;;;;;;;4.11;81.20;97290.23;108837;1253;99281;-80
2024/03/06 03:38:16;;;;;;;58.70;33.80;;;;;;;4.09;81.19;97291.67;108827;1252;95808;-79
2024/03/06 03:40:44;;;;;;;52.20;31.10;;;;;;;4.06;81.08;97291.69;108798;1253;95990;-79
2024/03/06 03:43:11;;;;;;;47.10;28.20;;;;;;;4.03;81.06;97295.06;108859;1253;102622;-80
2024/03/06 03:45:39;;;;;;;47.40;27.90;;;;;;;3.98;81.06;97294.35;108866;1252;101650;-80
2024/03/06 03:48:07;;;;;;;44.80;27.00;;;;;;;3.93;80.92;97298.23;108792;1252;107830;-79
2024/03/06 03:50:35;;;;;;;46.30;29.00;;;;;;;3.90;80.82;97296.34;108846;1253;95637;-80
2024/03/06 03:53:02;;;;;;;46.70;28.50;;;;;;;3.88;80.83;97296.10;108712;1252;96026;-80
2024/03/06 03:55:30;;;;;;;45.90;28.60;;;;;;;3.91;80.93;97296.88;108844;1252;111238;-79
2024/03/06 03:57:58;;;;;;;45.20;27.90;;;;;;;3.94;80.90;97299.61;108850;1253;109043;-79
2024/03/06 04:00:25;;;;;;;42.90;27.10;;;;;;;3.90;80.69;97298.42;108819;1253;99899;-79
2024/03/06 04:02:53;;;;;;;44.70;26.40;;;;;;;3.79;80.43;97301.42;108824;1253;95676;-79
2024/03/06 04:05:21;;;;;;;41.20;26.80;;;;;;;3.71;80.48;97299.85;108865;1252;95991;-79
2024/03/06 04:07:49;;;;;;;47.20;29.20;;;;;;;3.68;80.62;97303.99;108806;1253;103557;-79
2024/03/06 04:10:16;;;;;;;52.20;30.90;;;;;;;3.65;80.72;97303.75;108818;1252;101524;-79
2024/03/06 04:12:44;;;;;;;49.00;30.80;;;;;;;3.64;80.74;97303.81;108810;1252;100210;-80
2024/03/06 04:15:12;;;;;;;52.50;32.30;;;;;;;3.62;80.80;97308.47;108776;1253;95600;-79
2024/03/06 04:17:40;;;;;;;55.10;32.50;;;;;;;3.59;80.75;97308.33;108921;1252;96216;-81
2024/03/06 04:20:11;;;;;;;57.90;33.30;;;;;;;3.57;80.90;97310.89;108746;1253;103798;-79
2024/03/06 04:22:40;;;;;;;55.40;33.90;;;;;;;3.56;80.91;97314.69;108719;1251;101611;-79
2024/03/06 04:25:08;;;;;;;60.60;37.50;;;;;;;3.55;80.92;97313.05;108815;1252;97771;-79
2024/03/06 04:27:36;;;;;;;56.10;35.00;;;;;;;3.54;80.95;97312.22;108823;1252;95834;-79
2024/03/06 04:30:05;;;;;;;58.80;35.50;;;;;;;3.55;81.02;97311.42;108779;1252;96529;-80
2024/03/06 04:32:32;;;;;;;58.70;36.30;;;;;;;3.55;81.01;97315.02;108798;1252;110823;-80
2024/03/06 04:35:00;;;;;;;58.40;36.40;;;;;;;3.53;81.03;97319.98;108874;1251;100340;-80
2024/03/06 04:37:29;;;;;;;56.40;34.70;;;;;;;3.52;81.13;97323.30;108768;1252;100145;-79
2024/03/06 04:39:57;;;;;;;58.30;35.20;;;;;;;3.53;81.16;97324.33;108875;1253;96709;-80
2024/03/06 04:42:24;;;;;;;56.20;34.00;;;;;;;3.53;81.15;97324.83;108796;1252;95917;-79
2024/03/06 04:44:52;;;;;;;54.70;34.40;;;;;;;3.52;81.16;97326.77;108871;1253;103815;-80
2024/03/06 04:47:20;;;;;;;60.80;36.00;;;;;;;3.52;81.25;97325.13;108871;1252;100317;-79
2024/03/06 04:49:49;;;;;;;55.60;33.70;;;;;;;3.53;81.25;97324.53;108822;1253;98998;-80
2024/03/06 04:52:17;;;;;;;58.10;35.80;;;;;;;3.53;81.23;97324.63;108758;1253;95530;-80
2024/03/06 04:54:45;;;;;;;61.10;33.80;;;;;;;3.53;81.21;97320.55;108931;1252;96026;-79
2024/03/06 04:57:12;;;;;;;55.30;33.80;;;;;;;3.53;81.23;97320.52;108855;1252;102671;-80
2024/03/06 04:59:40;;;;;;;60.20;34.80;;;;;;;3.54;81.27;97320.80;108813;1252;101635;-79
2024/03/06 05:02:08;;;;;;;57.70;33.90;;;;;;;3.53;81.17;97322.33;108833;1252;98459;-80
2024/03/06 05:04:36;;;;;;;55.60;34.50;;;;;;;3.52;81.19;97324.63;108846;1253;95595;-80
2024/03/06 05:07:04;;;;;;;56.90;33.80;;;;;;;3.50;81.26;97323.16;108865;1253;96042;-80
2024/03/06 05:09:32;;;;;;;49.50;32.10;;;;;;;3.50;81.26;97325.00;108852;1252;103582;-79
2024/03/06 05:12:00;;;;;;;51.60;32.00;;;;;;;3.46;81.28;97332.90;108820;1253;101722;-80
2024/03/06 05:14:28;;;;;;;53.80;33.70;;;;;;;3.45;81.41;97335.70;108860;1252;100104;-79
2024/03/06 05:16:55;;;;;;;50.90;32.10;;;;;;;3.45;81.34;97331.02;108829;1253;95579;-80
2024/03/06 05:19:23;;;;;;;53.30;31.70;;;;;;;3.46;81.19;97329.42;108810;1252;97537;-79
2024/03/06 05:21:51;;;;;;;54.00;32.00;;;;;;;3.45;81.07;97324.71;108862;1253;102412;-80
2024/03/06 05:24:18;;;;;;;55.30;33.50;;;;;;;3.44;81.10;97324.25;108816;1253;101511;-79
2024/03/06 05:26:46;;;;;;;57.00;34.40;;;;;;;3.45;81.03;97328.83;108823;1252;98889;-80
2024/03/06 05:29:14;;;;;;;59.70;34.60;;;;;;;3.44;81.12;97329.38;108802;1252;95914;-79
2024/03/06 05:31:42;;;;;;;67.30;38.60;;;;;;;3.44;81.19;97331.35;108807;1252;96428;-79
2024/03/06 05:34:09;;;;;;;61.50;36.30;;;;;;;3.44;81.18;97333.30;108817;1252;103955;-79
2024/03/06 05:36:37;;;;;;;57.10;34.50;;;;;;;3.44;81.05;97335.80;108821;1252;101614;-79
2024/03/06 05:39:07;;;;;;;53.10;33.10;;;;;;;3.44;81.04;97339.52;108779;1252;99993;-80
2024/03/06 05:41:34;;;;;;;51.90;33.60;;;;;;;3.43;81.00;97339.52;108794;1253;95586;-79
2024/03/06 05:44:04;;;;;;;52.10;31.50;;;;;;;3.41;81.01;97346.27;108802;1252;96127;-79
2024/03/06 05:46:32;;;;;;;51.30;31.50;;;;;;;3.41;80.99;97351.27;108857;1251;103527;-79
2024/03/06 05:49:01;;;;;;;50.30;33.50;;;;;;;3.40;80.92;97353.63;108839;1252;100077;-79
2024/03/06 05:51:30;;;;;;;50.60;33.20;;;;;;;3.40;81.04;97354.42;108789;1252;98954;-79
2024/03/06 05:53:57;;;;;;;56.20;33.80;;;;;;;3.38;80.90;97353.70;108791;1252;95585;-79
2024/03/06 05:56:25;;;;;;;55.40;34.10;;;;;;;3.38;80.88;97352.64;108847;1253;96005;-79
2024/03/06 05:58:54;;;;;;;51.30;33.50;;;;;;;3.37;80.82;97355.25;108830;1252;104137;-79
2024/03/06 06:01:22;;;;;;;56.80;34.90;;;;;;;3.36;80.81;97361.63;108863;1253;101464;-79
2024/03/06 06:03:50;;;;;;;78.80;48.40;;;;;;;3.34;80.80;97364.52;108830;1253;100034;-79
2024/03/06 06:06:19;;;;;;;73.50;43.40;;;;;;;3.32;80.83;97364.91;108750;1252;96023;-79
2024/03/06 06:08:46;;;;;;;70.30;44.00;;;;;;;3.34;80.96;97366.15;108921;1252;96153;-79
2024/03/06 06:11:14;;;;;;;61.40;38.80;;;;;;;3.41;81.04;97369.25;108751;1252;103721;-80
2024/03/06 06:13:42;;;;;;;64.40;40.00;;;;;;;3.49;81.14;97368.52;108812;1253;100332;-79
2024/03/06 06:16:09;;;;;;;67.80;45.30;;;;;;;3.55;81.28;97367.97;108808;1252;98837;-79
2024/03/06 06:18:37;;;;;;;72.90;49.40;;;;;;;3.61;81.12;97367.34;108808;1253;95615;-79
2024/03/06 06:21:07;;;;;;;73.70;48.00;;;;;;;3.65;81.12;97369.02;108766;1252;96237;-80
2024/03/06 06:23:35;;;;;;;65.30;42.00;;;;;;;3.69;81.01;97370.93;108802;1252;103717;-79
2024/03/06 06:26:03;;;;;;;62.70;40.60;;;;;;;3.72;80.97;97371.16;108784;1253;101534;-79
2024/03/06 06:28:31;;;;;;;65.50;41.20;;;;;;;3.74;80.81;97372.15;108774;1253;100080;-79
2024/03/06 06:30:58;;;;;;;61.30;39.20;;;;;;;3.75;80.69;97372.87;108812;1251;95677;-80
2024/03/06 06:33:26;;;;;;;59.30;38.20;;;;;;;3.74;80.68;97373.59;108817;1253;96060;-79
2024/03/06 06:35:54;;;;;;;60.10;34.30;;;;;;;3.73;80.59;97378.67;108792;1252;103602;-79
2024/03/06 06:38:22;;;;;;;56.00;34.00;;;;;;;3.74;80.63;97379.84;108859;1252;101621;-79
2024/03/06 06:40:50;;;;;;;54.10;34.00;;;;;;;3.74;80.51;97377.36;108791;1252;108690;-79
2024/03/06 06:43:18;;;;;;;56.30;33.50;;;;;;;3.69;80.37;97375.00;108790;1252;95640;-79
2024/03/06 06:45:46;;;;;;;56.00;32.20;;;;;;;3.66;80.45;97378.89;108803;1252;95907;-79
2024/03/06 06:48:13;;;;;;;53.80;32.70;;;;;;;3.66;80.51;97379.47;108816;1252;102520;-79
2024/03/06 06:50:41;;;;;;;50.70;31.90;;;;;;;3.66;80.51;97377.13;108845;1253;101680;-79
2024/03/06 06:53:09;;;;;;;56.50;33.80;;;;;;;3.65;80.45;97381.14;108846;1252;100166;-79
2024/03/06 06:55:38;;;;;;;57.00;34.40;;;;;;;3.64;80.49;97383.73;108829;1252;95534;-79
2024/03/06 06:58:06;;;;;;;59.70;35.10;;;;;;;3.62;80.42;97384.83;108818;1253;96184;-79
2024/03/06 07:00:36;;;;;;;59.60;35.90;;;;;;;3.61;80.45;97381.29;108819;1252;102182;-79
2024/03/06 07:03:04;;;;;;;56.60;34.00;;;;;;;3.60;80.58;97382.22;108789;1252;100391;-79
2024/03/06 07:05:32;;;;;;;52.30;32.40;;;;;;;3.61;80.59;97378.71;108829;1252;98495;-79
2024/03/06 07:08:00;;;;;;;56.50;34.10;;;;;;;3.63;80.62;97379.48;108793;1252;95878;-79
2024/03/06 07:10:28;;;;;;;57.40;34.30;;;;;;;3.66;80.74;97376.63;108884;1252;95978;-79
2024/03/06 07:12:56;;;;;;;79.40;49.50;;;;;;;3.63;80.67;97379.04;108839;1252;102536;-80
2024/03/06 07:15:25;;;;;;;55.10;33.30;;;;;;;3.64;80.74;97373.77;108858;1252;100305;-79
2024/03/06 07:17:52;;;;;;;51.90;31.70;;;;;;;3.61;80.71;97374.67;108816;1252;99833;-80
2024/03/06 07:20:20;;;;;;;52.30;30.70;;;;;;;3.56;80.66;97374.71;108839;1252;95695;-79
2024/03/06 07:22:48;;;;;;;51.30;31.10;;;;;;;3.56;80.81;97372.61;108839;1252;95982;-79
2024/03/06 07:25:16;;;;;;;48.90;28.50;;;;;;;3.59;80.83;97371.18;108869;1252;102728;-80
2024/03/06 07:27:43;;;;;;;44.30;27.90;;;;;;;3.61;80.95;97367.90;108837;1253;101824;-80
2024/03/06 07:30:12;;;;;;;54.90;32.40;;;;;;;3.68;81.13;97367.45;108808;1253;100130;-80
2024/03/06 07:32:40;;;;;;;55.00;31.50;;;;;;;3.77;81.18;97368.74;108825;1253;95609;-79
2024/03/06 07:35:08;;;;;;;48.00;29.50;;;;;;;3.87;81.13;97372.00;108855;1252;96137;-80
2024/03/06 07:37:35;;;;;;;50.20;31.50;;;;;;;3.91;81.02;97369.85;108828;1252;103675;-80
2024/03/06 07:40:04;;;;;;;46.80;30.20;;;;;;;3.96;80.90;97368.44;108833;1253;102277;-80
2024/03/06 07:42:33;;;;;;;47.40;29.10;;;;;;;4.02;80.67;97368.35;108786;1253;99049;-80
2024/03/06 07:45:01;;;;;;;53.50;29.50;;;;;;;4.08;80.72;97364.49;108825;1252;95751;-80
2024/03/06 07:47:28;;;;;;;47.80;28.40;;;;;;;4.17;80.69;97359.48;108877;1253;96034;-80
2024/03/06 07:49:56;;;;;;;44.70;27.20;;;;;;;4.19;80.35;97363.70;108866;1253;103614;-80
2024/03/06 07:52:24;;;;;;;49.20;28.60;;;;;;;4.26;80.32;97363.96;108816;1252;100308;-79
2024/03/06 07:54:51;;;;;;;44.30;27.70;;;;;;;4.39;80.22;97369.96;108801;1253;95653;-80
2024/03/06 07:57:17;;;;;;;38.40;25.70;;;;;;;4.49;80.04;97370.45;108783;1254;95714;-79
2024/03/06 07:59:44;;;;;;;39.20;25.70;;;;;;;4.59;79.87;97377.31;108859;1252;95873;-79
2024/03/06 08:02:11;;;;;;;41.70;25.00;;;;;;;4.64;79.49;97379.37;108811;1253;95581;-79
2024/03/06 08:04:37;;;;;;;39.10;24.70;;;;;;;4.74;79.24;97374.44;108901;1253;96033;-80
2024/03/06 08:07:04;;;;;;;38.50;24.80;;;;;;;4.80;78.98;97374.65;108803;1252;96011;-79
2024/03/06 08:09:31;;;;;;;37.30;23.00;;;;;;;4.88;78.89;97377.07;108869;1252;95987;-79
2024/03/06 08:11:58;;;;;;;37.30;23.40;;;;;;;4.93;78.62;97380.39;108819;1252;95988;-79
2024/03/06 08:14:25;;;;;;;36.40;21.80;;;;;;;5.00;78.30;97382.11;108722;1252;95793;-80
2024/03/06 08:16:52;;;;;;;38.10;22.80;;;;;;;5.05;78.06;97379.13;108761;1253;95800;-79
2024/03/06 08:19:19;;;;;;;33.90;23.00;;;;;;;5.11;78.08;97377.41;108913;1253;96007;-80
2024/03/06 08:21:46;;;;;;;37.10;23.70;;;;;;;5.15;77.62;97376.73;108732;1253;105069;-79
2024/03/06 08:24:15;;;;;;;38.50;23.30;;;;;;;5.19;77.50;97375.41;108827;1253;96753;-79
2024/03/06 08:26:41;;;;;;;36.50;23.60;;;;;;;5.21;77.37;97376.58;108816;1252;101344;-79
2024/03/06 08:29:08;;;;;;;40.60;25.30;;;;;;;5.24;77.32;97375.45;108816;1252;95657;-79
2024/03/06 08:31:35;;;;;;;35.30;23.30;;;;;;;5.28;77.04;97374.30;108838;1253;95653;-80
2024/03/06 08:34:01;;;;;;;46.70;28.40;;;;;;;5.27;76.74;97374.92;108831;1253;95724;-79
2024/03/06 08:36:28;;;;;;;62.50;38.20;;;;;;;5.27;76.68;97373.70;108854;1253;95616;-79
2024/03/06 08:38:55;;;;;;;41.90;26.70;;;;;;;5.28;76.32;97379.45;108822;1252;95545;-80
2024/03/06 08:41:21;;;;;;;37.90;24.10;;;;;;;5.24;76.12;97380.63;108857;1252;95569;-79
2024/03/06 08:43:48;;;;;;;39.10;25.40;;;;;;;5.24;76.14;97378.70;108863;1252;95660;-79
2024/03/06 08:46:15;;;;;;;41.60;26.60;;;;;;;5.24;76.15;97378.13;108805;1252;95585;-79
2024/03/06 08:48:41;;;;;;;39.80;25.40;;;;;;;5.21;76.31;97376.17;108762;1253;95575;-79
2024/03/06 08:51:10;;;;;;;39.20;25.30;;;;;;;5.19;76.45;97373.83;108766;1251;96085;-79
2024/03/06 08:53:39;;;;;;;65.00;42.10;;;;;;;5.19;76.52;97379.59;108839;1253;104877;-79
2024/03/06 08:56:06;;;;;;;50.90;30.40;;;;;;;5.22;76.14;97382.61;108774;1254;102828;-79
2024/03/06 08:58:33;;;;;;;39.00;25.90;;;;;;;5.25;76.10;97383.17;108813;1252;101670;-79
2024/03/06 09:01:00;;;;;;;40.70;25.80;;;;;;;5.28;76.12;97381.45;108719;1253;95657;-79
2024/03/06 09:03:27;;;;;;;40.70;26.10;;;;;;;5.32;76.11;97380.77;108833;1252;95607;-79
2024/03/06 09:05:53;;;;;;;40.80;26.10;;;;;;;5.36;75.93;97377.93;108841;1252;95596;-79
2024/03/06 09:08:20;;;;;;;43.10;26.80;;;;;;;5.42;75.75;97377.98;108777;1256;95625;-80
2024/03/06 09:10:47;;;;;;;39.70;26.00;;;;;;;5.46;75.31;97374.00;108764;1253;95771;-79
2024/03/06 09:13:13;;;;;;;40.80;25.40;;;;;;;5.47;75.31;97371.39;108808;1252;96591;-79
2024/03/06 09:15:40;;;;;;;40.10;25.80;;;;;;;5.52;75.19;97372.42;108841;1253;95603;-79
2024/03/06 09:18:07;;;;;;;39.70;26.20;;;;;;;5.56;74.96;97369.07;108813;1254;95701;-79
2024/03/06 09:20:34;;;;;;;41.30;25.30;;;;;;;5.59;74.82;97371.18;108824;1254;95597;-80
2024/03/06 09:23:00;;;;;;;38.30;24.70;;;;;;;5.59;74.42;97369.81;108862;1252;95589;-79
2024/03/06 09:25:28;;;;;;;38.50;24.80;;;;;;;5.57;74.42;97364.23;108832;1253;104857;-79
2024/03/06 09:27:55;;;;;;;42.40;26.40;;;;;;;5.56;74.47;97368.16;108862;1253;102942;-79
2024/03/06 09:30:22;;;;;;;41.10;25.80;;;;;;;5.58;74.42;97371.52;108831;1256;95707;-79
2024/03/06 09:32:48;;;;;;;37.60;25.10;;;;;;;5.59;74.27;97371.31;108821;1252;95666;-79
2024/03/06 09:35:17;;;;;;;43.20;27.10;;;;;;;5.59;74.09;97373.73;108739;1253;95569;-79
2024/03/06 09:37:46;;;;;;;43.00;25.90;;;;;;;5.55;73.91;97376.17;108752;1252;96269;-79
2024/03/06 09:40:22;;;;;;;39.20;25.20;;;;;;;5.41;73.79;97373.81;108851;1251;102484;-79
2024/03/06 09:42:50;;;;;;;40.20;25.70;;;;;;;5.36;74.06;97374.02;108782;1253;107181;-79
2024/03/06 09:45:19;;;;;;;40.40;25.30;;;;;;;5.32;73.75;97373.27;108739;1254;95645;-79
2024/03/06 09:47:48;;;;;;;37.70;24.50;;;;;;;5.21;73.71;97372.42;108832;1251;96032;-79
2024/03/06 09:50:20;;;;;;;39.20;24.70;;;;;;;5.14;73.66;97374.65;108840;1254;104949;-79
2024/03/06 09:52:48;;;;;;;40.50;26.20;;;;;;;5.03;73.01;97374.52;108856;1253;102815;-79
2024/03/06 09:55:15;;;;;;;37.20;25.30;;;;;;;4.96;73.50;97376.64;108799;1252;101258;-79
2024/03/06 09:57:41;;;;;;;37.20;25.00;;;;;;;4.94;73.69;97381.71;108838;1252;95931;-79
2024/03/06 10:00:11;;;;;;;39.70;26.30;;;;;;;4.86;73.78;97385.96;108857;1254;95588;-79
2024/03/06 10:02:55;;;;;;;37.40;24.30;;;;;;;4.87;74.13;97384.63;108791;1252;131794;-79
2024/03/06 10:05:23;;;;;;;36.60;24.40;;;;;;;4.97;74.38;97387.01;108811;1253;102238;-79
2024/03/06 10:07:52;;;;;;;38.40;25.10;;;;;;;5.00;74.38;97389.86;108824;1253;101201;-79
2024/03/06 10:10:22;;;;;;;37.30;24.90;;;;;;;4.97;74.28;97391.88;108697;1253;96156;-79
2024/03/06 10:12:50;;;;;;;39.50;25.90;;;;;;;4.90;74.20;97386.98;108599;1252;97146;-79
2024/03/06 10:15:16;;;;;;;42.60;24.30;;;;;;;4.72;73.96;97392.42;108772;1254;104891;-79
2024/03/06 10:17:45;;;;;;;40.10;25.20;;;;;;;4.60;74.21;97392.23;108807;1253;95626;-79
2024/03/06 10:20:25;;;;;;;49.00;30.40;;;;;;;4.46;74.31;97389.34;108810;1253;101316;-80
2024/03/06 10:22:53;;;;;;;49.90;27.60;;;;;;;4.40;74.87;97391.83;108745;1253;95642;-80
2024/03/06 10:25:24;;;;;;;41.90;27.20;;;;;;;4.41;75.14;97391.50;108738;1252;96055;-79
2024/03/06 10:28:10;;;;;;;51.80;29.80;;;;;;;4.47;75.25;97391.54;108742;1254;104837;-79
2024/03/06 10:30:41;;;;;;;46.20;27.80;;;;;;;4.58;75.42;97395.46;108859;1256;102773;-79
2024/03/06 10:33:09;;;;;;;45.80;25.90;;;;;;;4.67;75.38;97392.98;108813;1253;101201;-79
2024/03/06 10:35:37;;;;;;;43.10;24.30;;;;;;;4.78;75.02;97390.70;108809;1254;95581;-80
2024/03/06 10:38:06;;;;;;;39.40;23.40;;;;;;;4.89;74.64;97387.83;108915;1252;97178;-80
2024/03/06 10:40:34;;;;;;;40.80;22.70;;;;;;;4.94;74.14;97388.80;108765;1253;105127;-79
2024/03/06 10:43:05;;;;;;;35.80;23.60;;;;;;;4.94;73.83;97390.45;108875;1252;103095;-79
2024/03/06 10:45:43;;;;;;;36.00;23.50;;;;;;;4.97;73.88;97393.92;108782;1252;100985;-79
2024/03/06 10:48:12;;;;;;;39.30;24.00;;;;;;;5.04;74.04;97393.89;108668;1253;95599;-80
2024/03/06 10:50:44;;;;;;;35.20;22.40;;;;;;;5.06;73.95;97397.23;108672;1253;96041;-79
2024/03/06 10:53:12;;;;;;;35.40;21.90;;;;;;;5.10;73.99;97394.24;108726;1253;112436;-80
2024/03/06 10:55:40;;;;;;;36.10;22.70;;;;;;;5.13;73.91;97395.37;108830;1252;102797;-79
2024/03/06 10:58:09;;;;;;;38.50;23.60;;;;;;;5.18;73.89;97396.04;108744;1253;95648;-79
2024/03/06 11:00:40;;;;;;;38.20;23.80;;;;;;;5.23;73.83;97399.34;108830;1254;95820;-79
2024/03/06 11:03:09;;;;;;;33.70;22.60;;;;;;;5.27;73.69;97396.31;108793;1252;96046;-79
2024/03/06 11:05:39;;;;;;;36.00;22.40;;;;;;;5.27;73.65;97394.73;108844;1252;111936;-79
2024/03/06 11:08:11;;;;;;;38.70;23.20;;;;;;;5.28;73.63;97393.90;108811;1253;103028;-79
2024/03/06 11:10:39;;;;;;;38.70;24.80;;;;;;;5.31;73.52;97393.27;108792;1252;101832;-79
2024/03/06 11:13:23;;;;;;;42.90;26.30;;;;;;;5.32;73.44;97390.20;108711;1254;95599;-79
2024/03/06 11:15:54;;;;;;;37.20;24.70;;;;;;;5.34;73.43;97385.03;108691;1253;96002;-79
2024/03/06 11:18:30;;;;;;;39.60;27.80;;;;;;;5.32;73.12;97382.08;108881;1253;105056;-79